Time;durP1;ratioP1;P1;durP2;ratioP2;P2;SDS_P1;SDS_P2;PMS_P1;PMS_P2;Temp;Humidity;BMP_temperature;BMP_pressure;BME280_temperature;BME280_humidity;BME280_pressure;Samples;Min_cycle;Max_cycle;Signal;HPM_P1;HPM_P2
2024/04/10 00:03:55;;;;;;;11.68;2.80;;;;;;;8.27;100.00;100494.06;10893400;27;20061;-74
2024/04/10 00:08:57;;;;;;;11.27;2.45;;;;;;;8.30;100.00;100502.03;10861429;27;20006;-74
2024/04/10 00:13:58;;;;;;;8.75;2.33;;;;;;;8.26;100.00;100492.31;10866090;27;20007;-73
2024/04/10 00:18:59;;;;;;;17.45;2.70;;;;;;;8.14;100.00;100503.94;10888536;27;20084;-73
2024/04/10 00:24:01;;;;;;;10.65;2.60;;;;;;;8.25;100.00;100508.75;10866748;27;20368;-73
2024/04/10 00:29:03;;;;;;;10.15;2.33;;;;;;;8.24;100.00;100523.47;10864338;27;20081;-75
2024/04/10 00:34:04;;;;;;;17.27;3.28;;;;;;;8.32;100.00;100542.03;10859319;27;20042;-72
2024/04/10 00:39:06;;;;;;;12.00;2.88;;;;;;;8.19;100.00;100547.53;10899772;27;20010;-74
2024/04/10 00:44:08;;;;;;;13.35;2.78;;;;;;;8.14;100.00;100544.72;10891934;27;20077;-75
2024/04/10 00:49:09;;;;;;;9.82;2.60;;;;;;;8.14;100.00;100553.41;10864426;27;20017;-74
2024/04/10 00:54:10;;;;;;;13.35;3.13;;;;;;;8.13;100.00;100562.06;10867905;27;20030;-74
2024/04/10 00:59:11;;;;;;;13.18;2.63;;;;;;;8.08;100.00;100573.09;10859331;27;20050;-74
2024/04/10 01:04:13;;;;;;;11.15;2.83;;;;;;;8.12;100.00;100570.69;10896370;27;20006;-74
2024/04/10 01:09:15;;;;;;;14.07;2.75;;;;;;;8.18;100.00;100571.78;10890334;27;20010;-74
2024/04/10 01:14:16;;;;;;;15.75;2.88;;;;;;;8.01;100.00;100565.81;10887777;27;20018;-74
2024/04/10 01:19:17;;;;;;;10.18;2.90;;;;;;;8.05;100.00;100586.84;10893414;27;20009;-74
2024/04/10 01:24:18;;;;;;;14.52;3.00;;;;;;;8.05;100.00;100578.16;10883333;27;20006;-75
2024/04/10 01:29:19;;;;;;;14.35;2.88;;;;;;;7.97;100.00;100580.41;10862674;27;20015;-76
2024/04/10 01:34:21;;;;;;;14.35;3.00;;;;;;;7.90;100.00;100588.78;10887758;27;20097;-75
2024/04/10 01:39:22;;;;;;;17.95;3.10;;;;;;;7.95;100.00;100607.19;10880824;27;20022;-74
2024/04/10 01:44:23;;;;;;;12.90;2.60;;;;;;;7.99;100.00;100623.03;10898302;27;20003;-74
2024/04/10 01:49:24;;;;;;;17.15;2.92;;;;;;;7.91;100.00;100619.16;10888999;27;20417;-74
2024/04/10 01:54:25;;;;;;;17.48;3.22;;;;;;;7.87;100.00;100623.34;10865986;27;20454;-73
2024/04/10 01:59:26;;;;;;;13.93;3.40;;;;;;;7.82;100.00;100632.63;10876341;27;20006;-76
2024/04/10 02:04:29;;;;;;;18.23;2.92;;;;;;;7.85;100.00;100638.00;10882952;27;20098;-74
2024/04/10 02:09:30;;;;;;;14.02;2.78;;;;;;;7.89;100.00;100642.50;10895443;27;20381;-73
2024/04/10 02:14:31;;;;;;;14.70;3.35;;;;;;;7.99;100.00;100651.66;10890343;27;20014;-75
2024/04/10 02:19:32;;;;;;;12.80;2.80;;;;;;;7.82;100.00;100653.44;10887560;27;20011;-74
2024/04/10 02:24:34;;;;;;;13.68;2.55;;;;;;;7.87;100.00;100654.56;10893594;27;20018;-74
2024/04/10 02:29:35;;;;;;;17.05;2.90;;;;;;;7.95;100.00;100660.13;10886720;27;20017;-74
2024/04/10 02:34:36;;;;;;;15.65;3.05;;;;;;;7.86;100.00;100659.69;10884863;27;20026;-74
2024/04/10 02:39:38;;;;;;;17.63;3.20;;;;;;;7.66;100.00;100674.34;10875718;27;20007;-73
2024/04/10 02:44:39;;;;;;;17.30;3.35;;;;;;;7.82;100.00;100683.78;10888009;27;19998;-71
2024/04/10 02:49:40;;;;;;;17.20;3.22;;;;;;;7.81;100.00;100690.72;10907418;27;20416;-76
2024/04/10 02:54:41;;;;;;;16.00;3.05;;;;;;;7.93;100.00;100686.88;10889011;27;20011;-73
2024/04/10 02:59:42;;;;;;;16.77;3.05;;;;;;;7.72;100.00;100703.28;10871347;27;20029;-75
2024/04/10 03:04:43;;;;;;;15.68;3.10;;;;;;;7.61;100.00;100715.78;10896276;27;20413;-74
2024/04/10 03:09:44;;;;;;;16.00;2.80;;;;;;;7.63;100.00;100724.53;10887815;27;20006;-74
2024/04/10 03:14:45;;;;;;;17.25;2.95;;;;;;;7.75;100.00;100731.16;10899389;27;20013;-73
2024/04/10 03:19:47;;;;;;;13.60;2.70;;;;;;;7.70;100.00;100738.72;10889547;27;20011;-73
2024/04/10 03:24:48;;;;;;;18.40;3.50;;;;;;;7.59;100.00;100743.41;10863992;27;20007;-74
2024/04/10 03:29:49;;;;;;;14.35;2.90;;;;;;;7.60;100.00;100752.97;10866410;27;20043;-75
2024/04/10 03:34:50;;;;;;;15.95;3.10;;;;;;;7.67;100.00;100760.28;10887628;27;20010;-76
2024/04/10 03:39:51;;;;;;;18.77;3.03;;;;;;;7.75;100.00;100770.19;10882366;27;20014;-76
2024/04/10 03:44:53;;;;;;;16.75;3.08;;;;;;;7.77;100.00;100781.53;10890712;27;19999;-71
2024/04/10 03:49:54;;;;;;;14.77;3.08;;;;;;;7.69;100.00;100799.38;10889745;27;20349;-74
2024/04/10 03:54:55;;;;;;;21.13;3.58;;;;;;;7.72;100.00;100799.53;10868548;27;20018;-74
2024/04/10 03:59:56;;;;;;;15.80;3.75;;;;;;;7.68;100.00;100810.63;10890543;27;20018;-74
2024/04/10 04:04:57;;;;;;;13.73;3.40;;;;;;;7.65;100.00;100816.53;10894614;27;20344;-74
2024/04/10 04:09:58;;;;;;;14.70;3.20;;;;;;;7.68;100.00;100824.50;10864867;27;20018;-74
2024/04/10 04:14:59;;;;;;;23.35;3.50;;;;;;;7.74;100.00;100836.94;10858171;27;20082;-74
2024/04/10 04:20:01;;;;;;;16.00;2.83;;;;;;;7.70;100.00;100842.78;10870159;27;20017;-74
2024/04/10 04:25:02;;;;;;;15.52;3.92;;;;;;;7.60;100.00;100864.84;10868871;27;20011;-74
2024/04/10 04:30:03;;;;;;;18.83;3.72;;;;;;;7.61;100.00;100879.66;10888808;27;20105;-74
2024/04/10 04:35:05;;;;;;;19.40;3.72;;;;;;;7.55;100.00;100894.00;10882882;27;20006;-74
2024/04/10 04:40:06;;;;;;;24.38;3.85;;;;;;;7.65;100.00;100905.00;10875928;27;20457;-74
2024/04/10 04:45:08;;;;;;;20.38;3.83;;;;;;;7.51;100.00;100918.09;10888091;27;20013;-74
2024/04/10 04:50:11;;;;;;;19.73;4.65;;;;;;;7.49;100.00;100928.41;10864415;27;20691;-74
2024/04/10 04:55:12;;;;;;;21.65;3.60;;;;;;;7.44;100.00;100927.28;10832676;27;20003;-74
2024/04/10 05:00:14;;;;;;;26.95;4.25;;;;;;;7.32;100.00;100947.41;10899270;27;20010;-72
2024/04/10 05:05:16;;;;;;;13.25;4.00;;;;;;;7.35;100.00;100951.06;10862354;27;20017;-74
2024/04/10 05:10:17;;;;;;;21.00;4.18;;;;;;;7.41;100.00;100960.91;10860583;27;20421;-73
2024/04/10 05:15:18;;;;;;;20.25;4.13;;;;;;;7.45;100.00;100968.06;10866836;27;20006;-74
2024/04/10 05:20:19;;;;;;;23.13;3.90;;;;;;;7.32;100.00;100983.81;10889539;27;20054;-74
2024/04/10 05:25:20;;;;;;;18.33;4.00;;;;;;;7.18;100.00;100986.56;10896459;27;20085;-74
2024/04/10 05:30:21;;;;;;;14.95;4.05;;;;;;;7.21;100.00;100991.94;10889058;27;20084;-74
2024/04/10 05:35:22;;;;;;;22.10;4.18;;;;;;;7.28;100.00;100997.47;10854654;27;20023;-76
2024/04/10 05:40:23;;;;;;;17.65;4.47;;;;;;;7.38;100.00;101016.25;10883384;27;20011;-74
2024/04/10 05:45:25;;;;;;;24.23;4.70;;;;;;;7.42;100.00;101019.91;10885508;27;20072;-75
2024/04/10 05:50:26;;;;;;;22.45;4.20;;;;;;;7.49;100.00;101026.38;10890733;27;20007;-74
2024/04/10 05:55:27;;;;;;;17.95;3.80;;;;;;;7.54;100.00;101053.50;10891514;27;20416;-73
2024/04/10 06:00:28;;;;;;;16.08;4.43;;;;;;;7.49;100.00;101057.56;10889753;27;20507;-73
2024/04/10 06:05:29;;;;;;;18.60;4.32;;;;;;;7.40;100.00;101064.03;10897401;27;20055;-74
2024/04/10 06:10:30;;;;;;;19.17;4.93;;;;;;;7.45;100.00;101077.28;10861628;27;20086;-71
2024/04/10 06:15:31;;;;;;;22.88;4.72;;;;;;;7.38;100.00;101083.84;10892433;27;20003;-73
2024/04/10 06:20:33;;;;;;;22.25;5.03;;;;;;;7.49;100.00;101086.19;10867374;27;20457;-72
2024/04/10 06:25:34;;;;;;;22.02;4.60;;;;;;;7.61;100.00;101095.56;10889417;27;20007;-74
2024/04/10 06:30:35;;;;;;;20.65;4.88;;;;;;;7.59;100.00;101107.56;10892670;27;20342;-71
2024/04/10 06:35:36;;;;;;;22.48;5.00;;;;;;;7.52;100.00;101117.56;10822201;27;20145;-72
2024/04/10 06:40:37;;;;;;;21.23;4.70;;;;;;;7.59;100.00;101114.47;10880090;27;20100;-70
2024/04/10 06:45:38;;;;;;;19.08;5.30;;;;;;;7.54;100.00;101135.03;10867158;27;20344;-74
2024/04/10 06:50:40;;;;;;;17.85;5.35;;;;;;;7.43;100.00;101130.94;10892495;27;19999;-73
2024/04/10 06:55:41;;;;;;;23.13;5.22;;;;;;;7.55;100.00;101135.91;10900191;27;20011;-75
2024/04/10 07:00:42;;;;;;;19.92;4.70;;;;;;;7.60;100.00;101156.19;10905204;27;20018;-72
2024/04/10 07:05:48;;;;;;;25.95;6.05;;;;;;;7.57;100.00;101169.00;10898680;27;19998;-75
2024/04/10 07:10:53;;;;;;;19.13;6.18;;;;;;;7.54;100.00;101171.44;10900602;27;20056;-76
2024/04/10 07:15:59;;;;;;;24.38;6.80;;;;;;;7.36;100.00;101188.63;10862786;27;20030;-74
2024/04/10 07:21:04;;;;;;;25.60;6.55;;;;;;;7.18;100.00;101196.22;10897670;27;20006;-75
2024/04/10 07:26:12;;;;;;;25.83;6.70;;;;;;;7.09;100.00;101211.28;10872560;27;20349;-75
2024/04/10 07:31:16;;;;;;;;;;;;;;;7.06;100.00;101219.78;10880199;21;19998;-71
2024/04/10 07:36:18;;;;;;;18.85;6.57;;;;;;;7.10;100.00;101231.25;11021324;26;20381;-74
2024/04/10 07:41:19;;;;;;;29.33;7.38;;;;;;;7.17;100.00;101243.84;11034569;26;20041;-75
2024/04/10 07:46:21;;;;;;;25.25;7.25;;;;;;;7.26;100.00;101251.25;10951000;26;20017;-77
2024/04/10 07:51:22;;;;;;;27.77;7.55;;;;;;;7.34;100.00;101252.63;10913134;26;20018;-75
2024/04/10 07:56:23;;;;;;;29.27;8.60;;;;;;;7.33;100.00;101256.94;10984239;26;20002;-76
2024/04/10 08:01:24;;;;;;;24.85;8.38;;;;;;;7.36;100.00;101258.81;10941128;26;20160;-74
2024/04/10 08:06:25;;;;;;;33.38;9.88;;;;;;;7.59;100.00;101270.56;10972743;26;20014;-76
2024/04/10 08:11:27;;;;;;;29.67;10.50;;;;;;;7.79;100.00;101277.81;10956919;26;20002;-73
2024/04/10 08:16:28;;;;;;;34.88;11.63;;;;;;;7.75;100.00;101293.16;10915805;26;20077;-74
2024/04/10 08:21:35;;;;;;;31.92;12.20;;;;;;;7.80;100.00;101295.22;10979599;26;20359;-72
2024/04/10 08:26:37;;;;;;;40.50;14.65;;;;;;;7.80;100.00;101305.66;10947825;26;20445;-75
2024/04/10 08:31:39;;;;;;;37.80;15.73;;;;;;;7.96;100.00;101306.50;10957271;26;20034;-74
2024/04/10 08:36:40;;;;;;;40.10;17.67;;;;;;;8.23;100.00;101315.88;10971111;26;19998;-74
2024/04/10 08:41:41;;;;;;;41.70;17.48;;;;;;;8.17;100.00;101327.66;11007687;26;20016;-72
2024/04/10 08:46:43;;;;;;;39.55;17.40;;;;;;;8.30;100.00;101319.72;10928125;26;19997;-75
2024/04/10 08:51:44;;;;;;;46.60;19.10;;;;;;;8.34;100.00;101321.69;10979074;26;20439;-74
2024/04/10 08:56:45;;;;;;;45.55;19.35;;;;;;;8.51;100.00;101328.78;11005434;26;19993;-74
2024/04/10 09:01:47;;;;;;;46.72;20.95;;;;;;;8.54;100.00;101321.13;10954428;26;19997;-73
2024/04/10 09:06:49;;;;;;;49.47;20.40;;;;;;;8.55;100.00;101330.72;10991490;26;20075;-75
2024/04/10 09:11:53;;;;;;;49.60;19.70;;;;;;;8.70;100.00;101340.22;10940194;26;20097;-73
2024/04/10 09:17:02;;;;;;;46.13;21.08;;;;;;;8.58;100.00;101343.03;10954839;26;20017;-75
2024/04/10 09:22:06;;;;;;;48.83;21.85;;;;;;;8.70;100.00;101351.53;10981012;26;20070;-74
2024/04/10 09:27:10;;;;;;;52.65;23.20;;;;;;;8.83;100.00;101345.28;10947074;26;20467;-74
2024/04/10 09:32:13;;;;;;;51.88;24.23;;;;;;;8.96;100.00;101350.34;10972448;26;20010;-75
2024/04/10 09:37:15;;;;;;;48.85;23.35;;;;;;;8.90;100.00;101352.59;10956519;26;20021;-73
2024/04/10 09:42:28;;;;;;;52.22;23.48;;;;;;;8.82;100.00;101349.59;10953379;26;20348;-73
2024/04/10 09:47:30;;;;;;;49.35;22.75;;;;;;;9.15;100.00;101365.25;10956575;26;20002;-75
2024/04/10 09:52:31;;;;;;;44.17;21.55;;;;;;;9.19;100.00;101359.38;10946945;26;20013;-74
2024/04/10 09:57:32;;;;;;;40.33;20.30;;;;;;;9.43;100.00;101365.00;10968022;26;19998;-74
2024/04/10 10:02:34;;;;;;;43.72;19.60;;;;;;;9.39;100.00;101362.16;10938847;26;20005;-75
2024/04/10 10:07:36;;;;;;;38.40;17.30;;;;;;;9.56;100.00;101376.09;10964350;26;20012;-73
2024/04/10 10:12:37;;;;;;;37.03;17.83;;;;;;;9.71;100.00;101369.94;10954427;26;20001;-74
2024/04/10 10:17:38;;;;;;;37.75;18.15;;;;;;;9.66;100.00;101379.25;10995473;26;20541;-75
2024/04/10 10:22:39;;;;;;;36.17;18.27;;;;;;;9.83;100.00;101389.66;10887119;26;20110;-75
2024/04/10 10:27:41;;;;;;;38.25;18.90;;;;;;;9.80;100.00;101385.19;10961310;26;19998;-75
2024/04/10 10:32:42;;;;;;;40.08;17.75;;;;;;;9.76;100.00;101384.09;10937580;26;20002;-75
2024/04/10 10:37:43;;;;;;;41.67;19.10;;;;;;;9.84;100.00;101391.47;10969107;26;20017;-75
2024/04/10 10:42:46;;;;;;;39.00;18.23;;;;;;;9.80;100.00;101381.66;10964368;26;20457;-75
2024/04/10 10:47:47;;;;;;;39.90;18.23;;;;;;;10.10;100.00;101383.22;10937241;26;20016;-74
2024/04/10 10:52:48;;;;;;;37.97;17.63;;;;;;;10.19;100.00;101388.91;10929227;26;20016;-74
2024/04/10 10:58:03;;;;;;;39.90;18.25;;;;;;;9.98;100.00;101393.94;10942113;26;20502;-72
2024/04/10 11:03:08;;;;;;;40.75;18.70;;;;;;;10.09;100.00;101399.72;10956344;26;20002;-73
2024/04/10 11:08:09;;;;;;;36.42;18.65;;;;;;;10.16;100.00;101408.75;10965411;26;20139;-74
2024/04/10 11:13:11;;;;;;;37.70;19.75;;;;;;;10.06;100.00;101406.50;10943374;26;20002;-73
2024/04/10 11:18:16;;;;;;;35.70;18.98;;;;;;;9.95;100.00;101399.00;10908475;26;20002;-75
2024/04/10 11:23:17;;;;;;;35.95;19.40;;;;;;;10.04;100.00;101393.34;10949501;26;20001;-73
2024/04/10 11:28:19;;;;;;;34.42;18.00;;;;;;;10.04;100.00;101409.03;10971814;26;20518;-74
2024/04/10 11:33:20;;;;;;;34.90;18.08;;;;;;;10.35;100.00;101407.97;10974815;26;20034;-74
2024/04/10 11:38:21;;;;;;;29.15;15.88;;;;;;;10.61;100.00;101404.00;10968491;26;20001;-75
2024/04/10 11:43:22;;;;;;;28.92;15.43;;;;;;;10.88;100.00;101401.84;10928880;26;20003;-73
2024/04/10 11:48:23;;;;;;;29.40;14.95;;;;;;;11.03;100.00;101406.84;10973489;26;20006;-74
2024/04/10 11:53:24;;;;;;;30.10;14.98;;;;;;;11.12;100.00;101395.09;10969899;26;20539;-74
2024/04/10 11:58:25;;;;;;;24.42;14.13;;;;;;;10.95;100.00;101400.41;10961186;26;20376;-75
2024/04/10 12:03:26;;;;;;;25.23;13.45;;;;;;;11.27;100.00;101386.16;10948033;26;20003;-72
2024/04/10 12:08:32;;;;;;;25.67;12.88;;;;;;;11.49;100.00;101394.16;10946815;26;19994;-75
2024/04/10 12:13:40;;;;;;;30.73;13.95;;;;;;;11.14;100.00;101390.84;10942225;26;20017;-76
2024/04/10 12:18:41;;;;;;;22.92;12.18;;;;;;;10.96;100.00;101402.19;10971224;26;20002;-75
2024/04/10 12:23:42;;;;;;;24.45;11.85;;;;;;;11.13;100.00;101407.38;10960217;26;20089;-76
2024/04/10 12:28:46;;;;;;;15.90;9.45;;;;;;;11.61;100.00;101405.16;10963795;26;20513;-72
2024/04/10 12:33:47;;;;;;;17.35;9.25;;;;;;;11.93;100.00;101410.94;10927573;26;20049;-73
2024/04/10 12:38:49;;;;;;;18.70;7.82;;;;;;;12.05;100.00;101407.94;10962963;26;20002;-74
2024/04/10 12:43:51;;;;;;;14.90;7.70;;;;;;;12.08;100.00;101405.44;10969955;26;20009;-74
2024/04/10 12:48:52;;;;;;;13.52;8.40;;;;;;;12.04;100.00;101409.66;10963179;26;20001;-74
2024/04/10 12:53:53;;;;;;;14.13;8.80;;;;;;;11.95;100.00;101411.88;10964008;26;20079;-74
2024/04/10 12:58:54;;;;;;;15.02;7.68;;;;;;;11.71;100.00;101411.72;10973969;26;20013;-74
2024/04/10 13:03:55;;;;;;;13.88;7.55;;;;;;;11.52;100.00;101416.97;10959564;26;20002;-74
2024/04/10 13:08:56;;;;;;;14.02;9.15;;;;;;;11.35;100.00;101424.97;10966632;26;20079;-73
2024/04/10 13:13:57;;;;;;;18.50;8.60;;;;;;;11.27;100.00;101438.50;10962376;26;20009;-74
2024/04/10 13:18:58;;;;;;;17.30;7.75;;;;;;;11.15;100.00;101439.72;10940028;26;20002;-74
2024/04/10 13:24:00;;;;;;;14.15;7.80;;;;;;;11.16;100.00;101440.59;10916065;26;20009;-75
2024/04/10 13:29:01;;;;;;;17.15;8.07;;;;;;;11.19;100.00;101443.38;10952988;26;20007;-74
2024/04/10 13:34:03;;;;;;;12.45;7.70;;;;;;;11.28;100.00;101448.13;10969081;26;20013;-74
2024/04/10 13:39:04;;;;;;;16.00;8.80;;;;;;;11.48;100.00;101446.41;10944855;26;20013;-73
2024/04/10 13:44:06;;;;;;;15.60;8.00;;;;;;;11.55;100.00;101456.38;10966764;26;20419;-75
2024/04/10 13:49:07;;;;;;;16.70;7.85;;;;;;;11.53;100.00;101463.25;10988104;26;20001;-75
2024/04/10 13:54:08;;;;;;;15.68;7.45;;;;;;;11.57;100.00;101458.19;10976585;26;20005;-73
2024/04/10 13:59:09;;;;;;;16.80;7.45;;;;;;;11.61;100.00;101474.97;10973935;26;20031;-75
2024/04/10 14:04:10;;;;;;;14.98;7.60;;;;;;;11.57;100.00;101470.41;10956677;26;20335;-75
2024/04/10 14:09:11;;;;;;;16.65;6.97;;;;;;;11.55;100.00;101464.22;10986966;26;20053;-75
2024/04/10 14:14:12;;;;;;;11.98;6.80;;;;;;;11.71;100.00;101471.03;10967706;26;20001;-73
2024/04/10 14:19:14;;;;;;;14.48;7.03;;;;;;;11.76;100.00;101465.16;10958968;26;20343;-75
2024/04/10 14:24:18;;;;;;;13.73;7.22;;;;;;;11.74;100.00;101463.34;10981917;26;20076;-74
2024/04/10 14:29:19;;;;;;;14.77;6.40;;;;;;;11.79;99.03;101473.16;10936684;26;20011;-75
2024/04/10 14:34:20;;;;;;;10.75;6.10;;;;;;;11.92;98.06;101473.75;10977746;26;20002;-75
2024/04/10 14:39:21;;;;;;;14.35;6.45;;;;;;;12.09;97.56;101472.75;10960674;26;20054;-73
2024/04/10 14:44:43;;;;;;;10.60;6.47;;;;;;;12.49;100.00;101463.94;10991871;26;20002;-74
2024/04/10 14:49:46;;;;;;;17.45;6.40;;;;;;;12.72;91.23;101471.06;10962694;26;20422;-75
2024/04/10 14:54:50;;;;;;;14.82;6.40;;;;;;;12.74;89.10;101473.72;10999444;26;20011;-74
2024/04/10 14:59:55;;;;;;;15.52;9.13;;;;;;;12.73;88.50;101475.44;10926509;26;20015;-72
2024/04/10 15:04:56;;;;;;;11.23;5.65;;;;;;;12.46;92.44;101471.69;10971870;26;20354;-75
2024/04/10 15:09:57;;;;;;;11.77;5.60;;;;;;;12.65;95.40;101466.38;10982676;26;20021;-75
2024/04/10 15:14:58;;;;;;;12.43;5.63;;;;;;;12.86;97.74;101481.19;10990628;26;20013;-75
2024/04/10 15:19:59;;;;;;;9.80;5.30;;;;;;;12.68;95.64;101468.22;10979185;26;20455;-75
2024/04/10 15:25:00;;;;;;;7.60;4.63;;;;;;;12.90;97.17;101467.38;10971022;26;20091;-74
2024/04/10 15:30:02;;;;;;;10.40;4.82;;;;;;;12.67;94.46;101463.81;10944165;26;20091;-75
2024/04/10 15:35:03;;;;;;;9.82;4.78;;;;;;;12.32;100.00;101465.88;10934232;26;20027;-76
2024/04/10 15:40:05;;;;;;;11.73;5.18;;;;;;;12.43;100.00;101462.00;10957454;26;20002;-75
2024/04/10 15:45:06;;;;;;;10.57;4.30;;;;;;;12.45;100.00;101465.56;10972569;26;19997;-75
2024/04/10 15:50:08;;;;;;;15.23;4.93;;;;;;;12.44;100.00;101460.25;10965452;26;20348;-75
2024/04/10 15:55:09;;;;;;;10.43;4.43;;;;;;;12.55;99.49;101461.59;10956294;26;20009;-75
2024/04/10 16:00:10;;;;;;;8.63;4.03;;;;;;;12.88;93.68;101463.81;10946073;26;20016;-75
2024/04/10 16:05:11;;;;;;;7.65;3.60;;;;;;;12.89;94.14;101453.34;10961114;26;20025;-75
2024/04/10 16:10:13;;;;;;;7.63;3.20;;;;;;;12.89;91.66;101462.97;10942835;26;20440;-74
2024/04/10 16:15:14;;;;;;;9.00;3.60;;;;;;;12.78;79.38;101463.44;10943646;26;20016;-75
2024/04/10 16:20:15;;;;;;;9.88;2.90;;;;;;;12.51;82.88;101457.94;10966158;26;20084;-75
2024/04/10 16:25:17;;;;;;;6.38;2.95;;;;;;;12.40;88.95;101460.94;10950497;26;20109;-75
2024/04/10 16:30:23;;;;;;;7.85;3.20;;;;;;;12.44;85.83;101461.16;10944182;26;20531;-74
2024/04/10 16:35:25;;;;;;;6.53;3.05;;;;;;;12.63;83.20;101456.66;10948624;26;20007;-75
2024/04/10 16:40:26;;;;;;;7.22;2.85;;;;;;;12.82;87.19;101453.06;10965423;26;20005;-75
2024/04/10 16:45:27;;;;;;;6.80;2.90;;;;;;;12.88;82.73;101448.06;10954198;26;20002;-75
2024/04/10 16:50:28;;;;;;;8.52;3.00;;;;;;;12.88;84.30;101461.19;10939311;26;20352;-75
2024/04/10 16:55:31;;;;;;;6.15;3.00;;;;;;;12.64;83.55;101461.06;10956253;26;20006;-74
2024/04/10 17:00:32;;;;;;;8.00;2.90;;;;;;;12.32;83.62;101464.16;10970150;26;19998;-75
2024/04/10 17:05:36;;;;;;;6.55;2.85;;;;;;;12.05;89.16;101461.25;10967997;26;20018;-75
2024/04/10 17:10:39;;;;;;;7.35;2.63;;;;;;;11.91;93.14;101479.81;10954838;26;20002;-75
2024/04/10 17:15:40;;;;;;;7.00;3.05;;;;;;;11.81;92.45;101462.75;10939629;26;20002;-75
2024/04/10 17:26:01;;;;;;;6.13;2.80;;;;;;;11.73;98.97;101466.75;10961907;26;20344;-75
2024/04/10 17:31:05;;;;;;;10.13;3.22;;;;;;;11.65;100.00;101474.28;10939153;26;20015;-75
2024/04/10 17:37:36;;;;;;;9.07;3.00;;;;;;;11.55;100.00;101490.41;11267114;25;20458;-30
2024/04/10 17:42:39;;;;;;;6.88;2.75;;;;;;;11.48;100.00;101485.69;11212217;26;20004;-30
2024/04/10 17:47:41;;;;;;;7.65;3.00;;;;;;;11.36;100.00;101494.78;11218555;26;20417;-31
2024/04/10 17:52:42;;;;;;;7.57;3.15;;;;;;;11.30;100.00;101494.50;11209515;26;20000;-29
2024/04/10 17:57:44;;;;;;;6.88;3.30;;;;;;;11.20;100.00;101494.00;11210847;26;20011;-29
2024/04/10 18:02:45;;;;;;;7.82;2.80;;;;;;;11.12;100.00;101506.72;11216915;26;20573;-29
2024/04/10 18:07:50;;;;;;;8.25;2.88;;;;;;;11.06;100.00;101506.41;11213653;26;19999;-29
2024/04/10 18:12:51;;;;;;;5.40;2.75;;;;;;;10.98;100.00;101510.41;11215246;26;20076;-30
2024/04/10 18:17:53;;;;;;;9.20;3.30;;;;;;;10.92;100.00;101524.06;11213451;26;20003;-31
2024/04/10 18:22:54;;;;;;;7.13;3.15;;;;;;;10.90;100.00;101525.69;11190638;26;19999;-35
2024/04/10 18:27:55;;;;;;;7.05;3.17;;;;;;;10.83;100.00;101529.75;11186393;26;20000;-29
2024/04/10 18:32:56;;;;;;;15.52;3.35;;;;;;;10.78;100.00;101535.56;11201504;26;19999;-29
2024/04/10 18:37:57;;;;;;;8.10;3.10;;;;;;;10.65;100.00;101534.94;11219784;26;20014;-29
2024/04/10 18:42:59;;;;;;;6.90;3.05;;;;;;;10.61;100.00;101547.78;11215208;26;20010;-31
2024/04/10 18:48:00;;;;;;;8.75;3.28;;;;;;;10.55;100.00;101552.72;11157713;26;20015;-31
2024/04/10 18:53:01;;;;;;;6.70;3.00;;;;;;;10.44;100.00;101550.47;11185988;26;20343;-30
2024/04/10 18:58:02;;;;;;;8.60;3.28;;;;;;;10.38;100.00;101550.13;11183812;26;20004;-30
2024/04/10 19:03:03;;;;;;;8.68;3.15;;;;;;;10.30;100.00;101543.59;11175113;26;20445;-30
2024/04/10 19:08:05;;;;;;;6.95;2.70;;;;;;;10.21;100.00;101543.09;11167994;26;20021;-31
2024/04/10 19:13:06;;;;;;;7.45;2.88;;;;;;;10.11;100.00;101554.78;11177455;26;20004;-30
2024/04/10 19:18:11;;;;;;;5.72;2.65;;;;;;;10.04;100.00;101559.63;11180242;26;20461;-31
2024/04/10 19:23:12;;;;;;;5.88;2.70;;;;;;;10.03;100.00;101552.59;11182934;26;20033;-30
2024/04/10 19:28:14;;;;;;;9.15;3.28;;;;;;;9.96;100.00;101548.78;11160078;26;20016;-31
2024/04/10 19:33:15;;;;;;;8.50;3.50;;;;;;;9.89;100.00;101551.84;11173993;26;20128;-32
2024/04/10 19:38:17;;;;;;;7.57;3.47;;;;;;;9.84;100.00;101549.00;11163640;26;20015;-30
2024/04/10 19:43:20;;;;;;;10.52;3.50;;;;;;;9.83;100.00;101538.47;11162480;26;20420;-30
2024/04/10 19:48:22;;;;;;;7.65;3.20;;;;;;;9.79;100.00;101539.13;11170651;26;20054;-30
2024/04/10 19:53:23;;;;;;;7.43;3.10;;;;;;;9.70;100.00;101540.41;11175178;26;20550;-30
2024/04/10 19:58:24;;;;;;;9.13;3.17;;;;;;;9.66;100.00;101537.56;11181497;26;20000;-30
2024/04/10 20:03:26;;;;;;;9.00;3.38;;;;;;;9.62;100.00;101552.16;11182866;26;20321;-31
2024/04/10 20:08:28;;;;;;;7.00;3.17;;;;;;;9.59;100.00;101532.84;11165660;26;20375;-30
2024/04/10 20:13:29;;;;;;;9.60;3.53;;;;;;;9.53;100.00;101531.69;11150954;26;20005;-30
2024/04/10 20:18:31;;;;;;;8.32;3.90;;;;;;;9.46;100.00;101521.72;11152981;26;20015;-30
2024/04/10 20:23:34;;;;;;;11.48;4.03;;;;;;;9.42;100.00;101524.06;11156004;26;20011;-30
2024/04/10 20:28:35;;;;;;;7.50;3.75;;;;;;;9.38;100.00;101532.56;11168516;26;20018;-32
2024/04/10 20:33:37;;;;;;;9.48;3.92;;;;;;;9.37;100.00;101546.41;11155214;26;20000;-30
2024/04/10 20:38:38;;;;;;;8.75;4.05;;;;;;;9.29;100.00;101553.81;11174098;26;20016;-31
2024/04/10 20:43:43;;;;;;;10.10;4.47;;;;;;;9.33;100.00;101553.19;11160048;26;20047;-31
2024/04/10 20:48:47;;;;;;;9.40;4.55;;;;;;;9.32;100.00;101566.13;11170016;26;20015;-31
2024/04/10 20:53:49;;;;;;;7.65;4.85;;;;;;;9.29;100.00;101561.63;11176173;26;20000;-30
2024/04/10 21:04:14;;;;;;;10.52;5.20;;;;;;;9.18;100.00;101573.19;11177790;21;20007;-24
2024/04/10 22:13:25;;;;;;;11.55;6.78;;;;;;;8.77;100.00;101583.03;11196187;26;19999;-27
2024/04/10 22:24:00;;;;;;;14.65;6.95;;;;;;;8.67;100.00;101585.91;11200122;26;20000;-25
2024/04/10 22:29:01;;;;;;;11.00;6.63;;;;;;;8.70;100.00;101582.59;11199241;26;20036;-25
2024/04/10 22:34:04;;;;;;;12.15;6.57;;;;;;;8.65;100.00;101581.41;11203745;26;20003;-25
2024/04/10 22:39:05;;;;;;;12.55;6.80;;;;;;;8.63;100.00;101589.16;11203170;26;20003;-24
2024/04/10 22:44:10;;;;;;;10.73;6.63;;;;;;;8.60;100.00;101591.56;11202878;26;20336;-25
2024/04/10 22:49:11;;;;;;;11.85;6.47;;;;;;;8.46;100.00;101587.22;11202702;26;20348;-24
2024/04/10 22:54:12;;;;;;;10.75;6.60;;;;;;;8.55;100.00;101582.56;11202391;26;20015;-25
2024/04/10 22:59:14;;;;;;;12.15;6.88;;;;;;;8.53;100.00;101576.38;11202541;26;20432;-25
2024/04/10 23:04:16;;;;;;;13.93;6.90;;;;;;;8.44;100.00;101568.94;11202525;26;20010;-24
2024/04/10 23:09:18;;;;;;;12.45;6.40;;;;;;;8.46;100.00;101576.81;11202743;26;20012;-25
2024/04/10 23:14:19;;;;;;;14.18;6.72;;;;;;;8.34;100.00;101559.63;11201666;26;20003;-25
2024/04/10 23:19:20;;;;;;;10.48;6.25;;;;;;;8.34;100.00;101548.28;11202280;26;20395;-25
2024/04/10 23:24:21;;;;;;;13.00;6.57;;;;;;;8.32;100.00;101542.09;11201330;26;20448;-25
2024/04/10 23:29:22;;;;;;;10.90;6.30;;;;;;;8.33;100.00;101536.09;11200452;26;20634;-25
2024/04/10 23:34:23;;;;;;;14.07;7.07;;;;;;;8.29;100.00;101542.81;11201140;26;20000;-25
2024/04/10 23:39:26;;;;;;;12.35;6.22;;;;;;;8.26;100.00;101523.50;11201680;26;20324;-25
2024/04/10 23:44:28;;;;;;;12.13;6.13;;;;;;;8.23;100.00;101521.63;11199295;26;20015;-25
2024/04/10 23:49:29;;;;;;;13.30;7.15;;;;;;;8.21;100.00;101522.31;11201602;26;19995;-25
2024/04/10 23:54:30;;;;;;;11.50;6.25;;;;;;;8.13;100.00;101519.28;11200872;26;20322;-25
2024/04/10 23:59:31;;;;;;;13.30;6.40;;;;;;;8.16;100.00;101516.84;11200155;26;20007;-25
